Time;durP1;ratioP1;P1;durP2;ratioP2;P2;SDS_P1;SDS_P2;PMS_P1;PMS_P2;Temp;Humidity;BMP_temperature;BMP_pressure;BME280_temperature;BME280_humidity;BME280_pressure;Samples;Min_cycle;Max_cycle;Signal;HPM_P1;HPM_P2
2024/04/05 00:02:14;;;;;;;;;;;;;;;15.21;75.98;100959.34;5028974;28;19921;-90
2024/04/05 00:04:39;;;;;;;;;;;;;;;15.18;76.03;100958.00;5028478;28;19917;-91
2024/04/05 00:07:05;;;;;;;;;;;;;;;15.16;76.25;100960.16;5027876;28;19917;-91
2024/04/05 00:09:30;;;;;;;;;;;;;;;15.15;76.16;100963.94;5029358;28;19921;-91
2024/04/05 00:11:55;;;;;;;;;;;;;;;15.13;76.12;100971.50;5027052;28;20400;-90
2024/04/05 00:14:20;;;;;;;;;;;;;;;15.10;76.41;100967.47;5027687;28;19932;-90
2024/04/05 00:16:45;;;;;;;;;;;;;;;15.10;76.30;100969.34;5027785;28;19921;-90
2024/04/05 00:19:11;;;;;;;;;;;;;;;15.09;76.25;100970.44;5024831;28;19972;-90
2024/04/05 00:21:37;;;;;;;;;;;;;;;15.07;76.62;100973.38;5024666;28;19947;-90
2024/04/05 00:24:02;;;;;;;;;;;;;;;15.05;76.31;100966.66;5023358;28;19925;-90
2024/04/05 00:26:28;;;;;;;;;;;;;;;15.00;76.89;100970.16;5027668;28;19932;-90
2024/04/05 00:28:53;;;;;;;;;;;;;;;14.99;76.93;100976.66;5028632;28;19925;-91
2024/04/05 00:31:18;;;;;;;;;;;;;;;15.00;77.05;100970.16;5026593;28;19925;-90
2024/04/05 00:33:43;;;;;;;;;;;;;;;15.01;76.97;100984.47;5027531;28;20612;-90
2024/04/05 00:36:11;;;;;;;;;;;;;;;15.02;76.92;100986.09;5028844;28;19991;-90
2024/04/05 00:38:36;;;;;;;;;;;;;;;15.01;76.92;100984.47;5025577;28;19964;-90
2024/04/05 00:41:01;;;;;;;;;;;;;;;15.02;76.92;100991.47;5027804;28;19920;-90
2024/04/05 00:43:26;;;;;;;;;;;;;;;15.01;76.87;100997.97;5026880;28;19921;-90
2024/04/05 00:45:52;;;;;;;;;;;;;;;15.03;76.90;100998.50;5026734;28;19923;-90
2024/04/05 00:48:22;;;;;;;;;;;;;;;15.04;76.76;101000.09;5026515;28;19968;-89
2024/04/05 00:50:49;;;;;;;;;;;;;;;15.04;76.52;101008.19;5026352;28;19925;-90
2024/04/05 00:53:18;;;;;;;;;;;;;;;15.05;76.48;101012.53;5028001;28;20020;-90
2024/04/05 00:55:44;;;;;;;;;;;;;;;15.03;76.68;101006.59;5026930;28;19955;-90
2024/04/05 00:58:09;;;;;;;;;;;;;;;15.04;76.82;101010.91;5025752;28;19924;-90
2024/04/05 01:00:35;;;;;;;;;;;;;;;15.03;76.90;101003.88;5025815;28;20385;-90
2024/04/05 01:03:00;;;;;;;;;;;;;;;15.03;76.88;101014.69;5026398;28;20012;-90
2024/04/05 01:05:25;;;;;;;;;;;;;;;15.02;76.92;101007.66;5024421;28;19936;-90
2024/04/05 01:07:52;;;;;;;;;;;;;;;14.98;76.89;101003.91;5027430;28;19928;-91
2024/04/05 01:10:17;;;;;;;;;;;;;;;14.96;76.97;101006.06;5028437;28;19999;-90
2024/04/05 01:12:42;;;;;;;;;;;;;;;14.90;77.19;101001.72;5027888;28;20393;-90
2024/04/05 01:15:07;;;;;;;;;;;;;;;14.86;77.87;101008.75;5028243;28;19932;-90
2024/04/05 01:17:34;;;;;;;;;;;;;;;14.80;77.96;101000.66;5026369;28;20397;-90
2024/04/05 01:19:59;;;;;;;;;;;;;;;14.80;78.23;101006.06;5026961;28;19917;-90
2024/04/05 01:22:29;;;;;;;;;;;;;;;14.81;78.49;101013.06;5028260;28;19928;-90
2024/04/05 01:24:54;;;;;;;;;;;;;;;14.80;78.54;101005.25;5026014;28;20003;-90
2024/04/05 01:27:19;;;;;;;;;;;;;;;14.77;78.63;101014.69;5026488;28;20021;-91
2024/04/05 01:29:45;;;;;;;;;;;;;;;14.81;78.19;101014.97;5028892;28;19932;-90
2024/04/05 01:32:10;;;;;;;;;;;;;;;14.77;78.83;101025.50;5028170;28;19925;-90
2024/04/05 01:34:35;;;;;;;;;;;;;;;14.78;78.77;101024.41;5028451;28;19921;-90
2024/04/05 01:37:00;;;;;;;;;;;;;;;14.77;78.95;101020.09;5028452;28;19975;-90
2024/04/05 01:39:25;;;;;;;;;;;;;;;14.80;78.71;101016.03;5026457;28;19920;-90
2024/04/05 01:41:50;;;;;;;;;;;;;;;14.82;78.63;101024.69;5026131;28;20420;-89
2024/04/05 01:44:16;;;;;;;;;;;;;;;14.81;78.50;101018.47;5021578;28;20025;-90
2024/04/05 01:46:41;;;;;;;;;;;;;;;14.80;78.57;101024.94;5026966;28;19917;-90
2024/04/05 01:49:06;;;;;;;;;;;;;;;14.80;78.83;101019.56;5029177;28;19924;-90
2024/04/05 01:51:31;;;;;;;;;;;;;;;14.84;78.81;101019.81;5027094;28;20012;-91
2024/04/05 01:53:56;;;;;;;;;;;;;;;14.81;78.86;101018.47;5031638;28;19921;-90
2024/04/05 01:56:22;;;;;;;;;;;;;;;14.85;78.81;101023.31;5030985;28;19967;-91
2024/04/05 01:58:47;;;;;;;;;;;;;;;14.81;79.19;101018.47;5027914;28;20400;-90
2024/04/05 02:01:12;;;;;;;;;;;;;;;14.84;79.34;101008.22;5027793;28;19918;-90
2024/04/05 02:03:38;;;;;;;;;;;;;;;14.89;79.03;101024.41;5030210;28;19943;-91
2024/04/05 02:06:12;;;;;;;;;;;;;;;14.87;78.93;101013.06;5031564;28;19921;-90
2024/04/05 02:08:38;;;;;;;;;;;;;;;14.88;79.06;101020.06;5030222;28;20617;-90
2024/04/05 02:11:03;;;;;;;;;;;;;;;14.88;79.03;101011.97;5027971;28;19921;-90
2024/04/05 02:13:31;;;;;;;;;;;;;;;14.87;79.30;101021.16;5031164;28;19921;-90
2024/04/05 02:15:56;;;;;;;;;;;;;;;14.88;79.03;101028.16;5030505;28;20004;-90
2024/04/05 02:18:22;;;;;;;;;;;;;;;14.88;78.99;101023.59;5030776;28;20390;-90
2024/04/05 02:20:53;;;;;;;;;;;;;;;14.87;78.92;101026.56;5028464;28;19913;-90
2024/04/05 02:23:18;;;;;;;;;;;;;;;14.84;79.33;101021.69;5029024;28;19921;-90
2024/04/05 02:25:44;;;;;;;;;;;;;;;14.83;79.12;101031.69;5030906;28;20388;-90
2024/04/05 02:28:09;;;;;;;;;;;;;;;14.81;79.25;101036.53;5028094;28;19916;-90
2024/04/05 02:30:39;;;;;;;;;;;;;;;14.75;79.04;101030.34;5028215;28;20448;-91
2024/04/05 02:33:04;;;;;;;;;;;;;;;14.71;79.14;101031.13;5026514;28;19931;-90
2024/04/05 02:35:30;;;;;;;;;;;;;;;14.65;79.57;101034.91;5026699;28;20317;-90
2024/04/05 02:37:55;;;;;;;;;;;;;;;14.62;79.45;101036.25;5023313;28;19920;-90
2024/04/05 02:40:20;;;;;;;;;;;;;;;14.58;79.51;101048.66;5025746;28;19926;-90
2024/04/05 02:42:45;;;;;;;;;;;;;;;14.56;79.18;101058.91;5023164;28;19921;-90
2024/04/05 02:45:10;;;;;;;;;;;;;;;14.48;79.69;101057.53;5026508;28;19987;-90
2024/04/05 02:47:36;;;;;;;;;;;;;;;14.47;80.27;101063.19;5026387;28;20357;-90
2024/04/05 02:50:01;;;;;;;;;;;;;;;14.43;79.78;101060.22;5022325;28;19931;-90
2024/04/05 02:52:26;;;;;;;;;;;;;;;14.44;79.64;101066.41;5026486;28;19925;-90
2024/04/05 02:54:52;;;;;;;;;;;;;;;14.39;79.87;101066.38;5023304;28;20021;-90
2024/04/05 02:57:17;;;;;;;;;;;;;;;14.35;80.22;101070.66;5023955;28;19925;-90
2024/04/05 02:59:42;;;;;;;;;;;;;;;14.35;79.78;101073.34;5020886;28;19925;-90
2024/04/05 03:02:08;;;;;;;;;;;;;;;14.30;80.03;101071.47;5019529;28;19925;-89
2024/04/05 03:04:33;;;;;;;;;;;;;;;14.28;79.97;101075.50;5025496;28;19917;-90
2024/04/05 03:06:59;;;;;;;;;;;;;;;14.25;80.33;101073.34;5028474;28;20377;-90
2024/04/05 03:09:24;;;;;;;;;;;;;;;14.25;80.19;101074.16;5028839;28;19925;-89
2024/04/05 03:11:49;;;;;;;;;;;;;;;14.23;80.52;101073.59;5030038;28;19940;-90
2024/04/05 03:14:14;;;;;;;;;;;;;;;14.20;80.50;101068.75;5032067;28;20391;-90
2024/04/05 03:16:39;;;;;;;;;;;;;;;14.19;80.47;101072.53;5030099;28;19917;-89
2024/04/05 03:19:04;;;;;;;;;;;;;;;14.17;80.64;101069.25;5027938;28;19928;-90
2024/04/05 03:21:30;;;;;;;;;;;;;;;14.19;80.70;101077.91;5030293;28;20387;-90
2024/04/05 03:23:55;;;;;;;;;;;;;;;14.18;80.71;101079.78;5028279;28;19921;-89
2024/04/05 03:26:20;;;;;;;;;;;;;;;14.19;80.61;101081.41;5027715;28;19940;-90
2024/04/05 03:28:46;;;;;;;;;;;;;;;14.19;80.64;101086.81;5027739;28;19925;-89
2024/04/05 03:31:11;;;;;;;;;;;;;;;14.21;80.40;101092.75;5028502;28;20263;-90
2024/04/05 03:33:36;;;;;;;;;;;;;;;14.18;80.68;101085.19;5029654;28;19928;-90
2024/04/05 03:36:02;;;;;;;;;;;;;;;14.18;80.58;101087.03;5027647;28;19926;-89
2024/04/05 03:38:27;;;;;;;;;;;;;;;14.18;80.37;101095.13;5029483;28;20035;-89
2024/04/05 03:40:52;;;;;;;;;;;;;;;14.16;80.37;101086.50;5024977;28;20517;-89
2024/04/05 03:43:17;;;;;;;;;;;;;;;14.15;80.52;101098.34;5027237;28;19928;-90
2024/04/05 03:45:43;;;;;;;;;;;;;;;14.14;80.38;101096.72;5027630;28;19917;-90
2024/04/05 03:48:09;;;;;;;;;;;;;;;14.12;80.58;101096.19;5028698;28;19925;-90
2024/04/05 03:50:34;;;;;;;;;;;;;;;14.11;80.66;101091.88;5029007;28;19929;-90
2024/04/05 03:53:01;;;;;;;;;;;;;;;14.11;80.58;101095.38;5028500;28;20377;-90
2024/04/05 03:55:26;;;;;;;;;;;;;;;14.10;80.67;101099.16;5029433;28;19917;-90
2024/04/05 03:57:52;;;;;;;;;;;;;;;14.11;80.56;101099.97;5028395;28;19921;-90
2024/04/05 04:00:18;;;;;;;;;;;;;;;14.11;80.43;101098.06;5026848;28;19923;-90
2024/04/05 04:02:44;;;;;;;;;;;;;;;14.09;80.33;101099.41;5029747;28;19925;-89
2024/04/05 04:05:09;;;;;;;;;;;;;;;14.06;80.71;101100.75;5029202;28;20450;-90
2024/04/05 04:07:34;;;;;;;;;;;;;;;14.05;80.40;101101.81;5029114;28;20373;-90
2024/04/05 04:10:00;;;;;;;;;;;;;;;14.04;80.35;101105.59;5027620;28;19913;-90
2024/04/05 04:12:25;;;;;;;;;;;;;;;14.01;80.38;101116.91;5028267;28;19917;-90
2024/04/05 04:14:50;;;;;;;;;;;;;;;14.00;80.54;101115.25;5024389;28;20454;-90
2024/04/05 04:17:15;;;;;;;;;;;;;;;13.97;80.38;101110.38;5030465;28;19925;-90
2024/04/05 04:19:41;;;;;;;;;;;;;;;13.93;80.65;101114.69;5026084;28;19921;-90
2024/04/05 04:22:07;;;;;;;;;;;;;;;13.92;80.74;101118.44;5026753;28;19927;-90
2024/04/05 04:24:32;;;;;;;;;;;;;;;13.90;80.60;101115.22;5028172;28;19984;-90
2024/04/05 04:26:57;;;;;;;;;;;;;;;13.88;80.87;101120.88;5023771;28;19936;-90
2024/04/05 04:29:23;;;;;;;;;;;;;;;13.88;81.18;101120.06;5027165;28;19917;-90
2024/04/05 04:31:49;;;;;;;;;;;;;;;13.87;80.87;101132.72;5027445;28;19925;-90
2024/04/05 04:34:14;;;;;;;;;;;;;;;13.89;81.09;101137.84;5028147;28;19983;-90
2024/04/05 04:36:39;;;;;;;;;;;;;;;13.88;81.19;101134.34;5026651;28;20015;-89
2024/04/05 04:39:08;;;;;;;;;;;;;;;13.88;80.93;101130.81;5028155;28;19924;-90
2024/04/05 04:41:33;;;;;;;;;;;;;;;13.87;80.79;101138.09;5028697;28;20362;-90
2024/04/05 04:43:59;;;;;;;;;;;;;;;13.88;81.08;101147.00;5026887;28;19968;-90
2024/04/05 04:46:24;;;;;;;;;;;;;;;13.88;81.07;101136.22;5027507;28;20428;-90
2024/04/05 04:48:49;;;;;;;;;;;;;;;13.88;80.99;101144.28;5028175;28;19924;-90
2024/04/05 04:51:14;;;;;;;;;;;;;;;13.86;81.06;101151.81;5027832;28;20000;-89
2024/04/05 04:53:39;;;;;;;;;;;;;;;13.87;81.37;101150.75;5027621;28;19925;-90
2024/04/05 04:56:05;;;;;;;;;;;;;;;13.89;81.50;101154.00;5027347;28;19928;-89
2024/04/05 04:58:32;;;;;;;;;;;;;;;13.90;81.69;101155.63;5028924;28;19939;-90
2024/04/05 05:00:58;;;;;;;;;;;;;;;13.91;82.10;101159.94;5024658;28;19975;-90
2024/04/05 05:03:24;;;;;;;;;;;;;;;13.95;82.14;101166.41;5025187;28;19922;-90
2024/04/05 05:05:49;;;;;;;;;;;;;;;13.99;82.33;101166.69;5026396;28;20126;-90
2024/04/05 05:08:15;;;;;;;;;;;;;;;14.04;81.93;101172.13;5027738;28;19984;-89
2024/04/05 05:10:40;;;;;;;;;;;;;;;14.06;82.32;101172.69;5022771;28;21097;-89
2024/04/05 05:13:05;;;;;;;;;;;;;;;14.08;82.54;101182.13;5021517;28;19924;-90
2024/04/05 05:15:31;;;;;;;;;;;;;;;14.11;82.13;101175.41;5028160;28;20072;-90
2024/04/05 05:17:56;;;;;;;;;;;;;;;14.13;82.31;101179.44;5026591;28;20814;-90
2024/04/05 05:20:26;;;;;;;;;;;;;;;14.13;82.67;101179.44;5016397;28;20902;-90
2024/04/05 05:22:52;;;;;;;;;;;;;;;14.14;82.54;101178.38;5027150;28;20381;-90
2024/04/05 05:25:17;;;;;;;;;;;;;;;14.18;82.33;101175.97;5025673;28;19932;-90
2024/04/05 05:27:42;;;;;;;;;;;;;;;14.19;82.58;101183.81;5025429;28;19971;-90
2024/04/05 05:30:08;;;;;;;;;;;;;;;14.20;82.64;101184.63;5027214;28;19921;-90
2024/04/05 05:32:33;;;;;;;;;;;;;;;14.20;82.75;101180.06;5029642;28;20553;-90
2024/04/05 05:34:58;;;;;;;;;;;;;;;14.23;82.76;101186.78;5026249;28;20384;-91
2024/04/05 05:37:23;;;;;;;;;;;;;;;14.23;83.07;101189.50;5030865;28;19917;-91
2024/04/05 05:39:48;;;;;;;;;;;;;;;14.25;82.80;101192.72;5027704;28;19995;-91
2024/04/05 05:42:14;;;;;;;;;;;;;;;14.27;83.08;101192.47;5029526;28;19963;-90
2024/04/05 05:44:39;;;;;;;;;;;;;;;14.30;82.75;101190.06;5029923;28;19917;-91
2024/04/05 05:47:04;;;;;;;;;;;;;;;14.31;82.77;101190.88;5029570;28;19964;-92
2024/04/05 05:49:29;;;;;;;;;;;;;;;14.32;83.28;101192.50;5034071;28;19927;-91
2024/04/05 05:51:54;;;;;;;;;;;;;;;14.34;83.67;101195.72;5029035;28;19917;-91
2024/04/05 05:54:20;;;;;;;;;;;;;;;14.37;83.86;101196.03;5030153;28;20374;-91
2024/04/05 05:56:45;;;;;;;;;;;;;;;14.41;83.78;101196.31;5028754;28;19913;-91
2024/04/05 05:59:10;;;;;;;;;;;;;;;14.46;83.66;101190.97;5026484;28;19917;-91
2024/04/05 06:01:35;;;;;;;;;;;;;;;14.47;83.91;101195.28;5029118;28;19921;-91
2024/04/05 06:04:03;;;;;;;;;;;;;;;14.51;84.02;101196.38;5030191;28;19929;-92
2024/04/05 06:06:28;;;;;;;;;;;;;;;14.57;83.86;101199.94;5041756;28;20321;-91
2024/04/05 06:08:53;;;;;;;;;;;;;;;14.60;83.84;101196.69;5028238;28;19925;-91
2024/04/05 06:11:18;;;;;;;;;;;;;;;14.64;83.89;101195.09;5026080;28;19917;-91
2024/04/05 06:13:44;;;;;;;;;;;;;;;14.68;84.17;101207.78;5029219;28;20288;-91
2024/04/05 06:16:09;;;;;;;;;;;;;;;14.73;83.91;101210.53;5028305;28;19928;-92
2024/04/05 06:18:34;;;;;;;;;;;;;;;14.78;83.83;101212.41;5031646;28;19917;-92
2024/04/05 06:20:59;;;;;;;;;;;;;;;14.82;84.01;101208.91;5031744;28;20474;-91
2024/04/05 06:23:25;;;;;;;;;;;;;;;14.85;83.79;101209.47;5032396;28;19932;-91
2024/04/05 06:25:54;;;;;;;;;;;;;;;14.90;84.10;101214.88;5028323;28;19928;-91
2024/04/05 06:28:19;;;;;;;;;;;;;;;14.96;84.22;101214.63;5029054;28;20460;-92
2024/04/05 06:30:45;;;;;;;;;;;;;;;15.03;83.50;101217.06;5031400;28;20007;-91
2024/04/05 06:33:10;;;;;;;;;;;;;;;15.03;83.90;101217.88;5027240;28;19944;-91
2024/04/05 06:35:36;;;;;;;;;;;;;;;15.05;84.10;101225.69;5027818;28;19971;-91
2024/04/05 06:38:01;;;;;;;;;;;;;;;15.07;84.04;101229.75;5021090;28;20301;-92
2024/04/05 06:40:26;;;;;;;;;;;;;;;15.15;83.71;101233.03;5024970;28;19917;-92
2024/04/05 06:42:52;;;;;;;;;;;;;;;15.17;84.26;101234.38;5026134;28;19921;-92
2024/04/05 06:45:17;;;;;;;;;;;;;;;15.25;83.77;101227.63;5027216;28;20416;-91
2024/04/05 06:47:42;;;;;;;;;;;;;;;15.29;83.53;101237.66;5029693;28;20365;-91
2024/04/05 06:50:07;;;;;;;;;;;;;;;15.33;83.41;101233.34;5023413;28;19925;-91
2024/04/05 06:52:33;;;;;;;;;;;;;;;15.38;82.98;101232.53;5026478;28;19924;-92
2024/04/05 06:54:58;;;;;;;;;;;;;;;15.45;83.14;101237.69;5029528;28;20285;-91
2024/04/05 06:57:24;;;;;;;;;;;;;;;15.58;83.60;101247.94;5028958;28;20397;-92
2024/04/05 06:59:49;;;;;;;;;;;;;;;15.76;83.12;101238.50;5031597;28;19925;-91
2024/04/05 07:02:16;;;;;;;;;;;;;;;15.90;82.22;101239.59;5030999;28;19959;-92
2024/04/05 07:04:44;;;;;;;;;;;;;;;16.08;81.79;101235.53;5027367;28;19921;-91
2024/04/05 07:07:09;;;;;;;;;;;;;;;16.21;81.12;101243.06;5033113;28;19932;-91
2024/04/05 07:09:34;;;;;;;;;;;;;;;16.36;80.10;101234.94;5031985;28;19916;-92
2024/04/05 07:12:04;;;;;;;;;;;;;;;16.44;79.49;101242.47;5027504;28;20015;-92
2024/04/05 07:14:29;;;;;;;;;;;;;;;16.57;78.19;101249.22;5021541;28;20408;-91
2024/04/05 07:16:55;;;;;;;;;;;;;;;16.65;78.58;101239.69;5028954;28;19917;-92
2024/04/05 07:19:21;;;;;;;;;;;;;;;16.75;78.54;101234.28;5027865;28;19913;-92
2024/04/05 07:21:46;;;;;;;;;;;;;;;16.89;77.49;101238.81;5029232;28;19917;-91
2024/04/05 07:24:11;;;;;;;;;;;;;;;16.98;77.30;101241.75;5028626;28;20244;-92
2024/04/05 07:26:37;;;;;;;;;;;;;;;17.05;76.32;101239.53;5031754;28;19959;-89
2024/04/05 07:29:02;;;;;;;;;;;;;;;17.10;75.32;101230.59;5023037;28;20399;-92
2024/04/05 07:31:28;;;;;;;;;;;;;;;17.19;75.94;101243.25;5027318;28;19917;-92
2024/04/05 07:33:53;;;;;;;;;;;;;;;17.35;75.74;101243.97;5030016;28;21666;-92
2024/04/05 07:36:18;;;;;;;;;;;;;;;17.49;74.66;101239.53;5026496;28;19963;-92
2024/04/05 07:38:44;;;;;;;;;;;;;;;17.64;74.17;101240.53;5029818;28;20404;-92
2024/04/05 07:41:09;;;;;;;;;;;;;;;17.76;73.50;101244.50;5028483;28;19928;-92
2024/04/05 07:43:35;;;;;;;;;;;;;;;17.83;71.74;101254.22;5025340;28;19926;-91
2024/04/05 07:46:00;;;;;;;;;;;;;;;17.83;70.83;101244.19;5023234;28;19913;-91
2024/04/05 07:48:25;;;;;;;;;;;;;;;17.88;70.81;101254.97;5026213;28;20482;-90
2024/04/05 07:50:51;;;;;;;;;;;;;;;17.94;69.17;101240.28;5029700;28;19919;-91
2024/04/05 07:53:16;;;;;;;;;;;;;;;18.00;69.83;101246.47;5025590;28;19917;-91
2024/04/05 07:55:41;;;;;;;;;;;;;;;18.05;67.84;101243.72;5024319;28;19925;-91
2024/04/05 07:58:06;;;;;;;;;;;;;;;18.15;68.93;101246.34;5027381;28;19913;-91
2024/04/05 08:00:32;;;;;;;;;;;;;;;18.24;68.28;101250.03;5022176;28;20266;-91
2024/04/05 08:02:57;;;;;;;;;;;;;;;18.31;67.30;101244.25;5027211;28;19921;-91
2024/04/05 08:05:22;;;;;;;;;;;;;;;18.32;66.84;101241.28;5016463;28;19917;-91
2024/04/05 08:07:47;;;;;;;;;;;;;;;18.35;65.75;101243.41;5017577;28;19947;-91
2024/04/05 08:10:12;;;;;;;;;;;;;;;18.43;65.50;101248.19;5032144;28;19913;-91
2024/04/05 08:12:39;;;;;;;;;;;;;;;18.49;65.42;101246.25;5031473;28;20361;-91
2024/04/05 08:15:04;;;;;;;;;;;;;;;18.58;64.68;101251.84;5023631;28;19967;-92
2024/04/05 08:17:29;;;;;;;;;;;;;;;18.69;64.82;101245.22;5027562;28;19913;-90
2024/04/05 08:19:55;;;;;;;;;;;;;;;18.75;65.19;101252.19;5030323;28;19960;-92
2024/04/05 08:22:21;;;;;;;;;;;;;;;18.89;64.85;101252.31;5017768;28;19917;-91
2024/04/05 08:24:46;;;;;;;;;;;;;;;18.97;64.34;101252.44;5029068;28;19920;-92
2024/04/05 08:27:12;;;;;;;;;;;;;;;19.08;64.59;101238.75;5022059;28;19921;-92
2024/04/05 08:29:37;;;;;;;;;;;;;;;19.18;64.33;101252.16;5019952;28;20003;-92
2024/04/05 08:32:03;;;;;;;;;;;;;;;19.25;62.68;101239.03;5022583;28;20292;-92
2024/04/05 08:34:28;;;;;;;;;;;;;;;19.30;62.72;101252.53;5024793;28;19971;-92
2024/04/05 08:36:54;;;;;;;;;;;;;;;19.37;61.87;101239.38;5022837;28;19967;-91
2024/04/05 08:39:19;;;;;;;;;;;;;;;19.46;61.61;101237.63;5016399;28;19921;-92
2024/04/05 08:41:46;;;;;;;;;;;;;;;19.53;61.78;101245.41;5029218;28;19963;-92
2024/04/05 08:44:14;;;;;;;;;;;;;;;19.60;60.99;101252.13;5026120;28;19927;-92
2024/04/05 08:46:41;;;;;;;;;;;;;;;19.61;60.44;101247.50;5030215;28;19924;-92
2024/04/05 08:49:06;;;;;;;;;;;;;;;19.50;60.74;101246.81;5034447;28;19948;-92
2024/04/05 08:51:33;;;;;;;;;;;;;;;19.51;61.31;101250.31;5019846;28;19925;-91
2024/04/05 08:53:58;;;;;;;;;;;;;;;19.50;60.77;101246.81;5022346;28;19925;-92
2024/04/05 08:56:25;;;;;;;;;;;;;;;19.53;61.43;101253.56;5029155;28;19970;-92
2024/04/05 08:58:52;;;;;;;;;;;;;;;19.60;61.13;101259.47;5025033;28;19925;-92
2024/04/05 09:01:17;;;;;;;;;;;;;;;19.65;60.35;101255.84;5027267;28;19924;-92
2024/04/05 09:03:43;;;;;;;;;;;;;;;19.64;60.10;101254.25;5030067;28;19921;-92
2024/04/05 09:06:08;;;;;;;;;;;;;;;19.68;60.13;101260.69;5031438;28;19929;-92
2024/04/05 09:08:42;;;;;;;;;;;;;;;19.79;60.02;101268.41;5033202;28;19917;-90
2024/04/05 09:11:07;;;;;;;;;;;;;;;19.84;59.26;101265.59;5031800;28;19948;-92
2024/04/05 09:13:32;;;;;;;;;;;;;;;19.94;59.70;101264.63;5048076;28;20014;-92
2024/04/05 09:16:00;;;;;;;;;;;;;;;20.08;59.72;101283.66;5027480;28;19924;-92
2024/04/05 09:18:25;;;;;;;;;;;;;;;20.04;58.21;101280.75;5030549;28;19921;-92
2024/04/05 09:20:51;;;;;;;;;;;;;;;19.95;57.59;101288.00;5033005;28;19963;-92
2024/04/05 09:23:16;;;;;;;;;;;;;;;19.95;58.31;101279.03;5024985;28;19921;-92
2024/04/05 09:25:42;;;;;;;;;;;;;;;19.96;57.90;101284.16;5032646;28;19929;-91
2024/04/05 09:28:13;;;;;;;;;;;;;;;20.01;57.52;101281.34;5023619;28;19921;-91
2024/04/05 09:30:38;;;;;;;;;;;;;;;20.06;57.71;101294.84;5030747;28;19924;-92
2024/04/05 09:33:03;;;;;;;;;;;;;;;20.07;56.88;101301.91;5034257;28;20099;-92
2024/04/05 09:35:29;;;;;;;;;;;;;;;20.08;57.35;101300.81;5022888;28;19924;-92
2024/04/05 09:37:55;;;;;;;;;;;;;;;20.05;56.87;101290.53;5025741;28;19944;-91
2024/04/05 09:40:21;;;;;;;;;;;;;;;20.09;57.17;101298.88;5024261;28;19918;-92
2024/04/05 09:42:47;;;;;;;;;;;;;;;20.13;56.88;101295.28;5030516;28;19956;-92
2024/04/05 09:45:12;;;;;;;;;;;;;;;20.26;57.24;101311.94;5034883;28;20558;-91
2024/04/05 09:47:38;;;;;;;;;;;;;;;20.37;57.54;101299.75;5027016;28;20380;-92
2024/04/05 09:50:08;;;;;;;;;;;;;;;20.57;57.04;101293.97;5031165;28;19920;-90
2024/04/05 09:52:36;;;;;;;;;;;;;;;20.72;56.80;101290.94;5024328;28;19917;-89
2024/04/05 09:55:04;;;;;;;;;;;;;;;20.92;56.84;101297.09;5030847;28;20018;-87
2024/04/05 09:57:30;;;;;;;;;;;;;;;20.98;55.98;101304.03;5028501;28;19971;-90
2024/04/05 09:59:56;;;;;;;;;;;;;;;21.00;55.88;101312.72;5031187;28;20002;-93
2024/04/05 10:02:22;;;;;;;;;;;;;;;21.01;55.64;101306.19;5033424;28;19992;-91
2024/04/05 10:04:48;;;;;;;;;;;;;;;21.07;55.84;101299.50;5028587;28;20408;-91
2024/04/05 10:07:14;;;;;;;;;;;;;;;21.11;55.42;101300.50;5033211;28;19952;-91
2024/04/05 10:09:40;;;;;;;;;;;;;;;21.10;55.66;101294.25;5026672;28;20011;-90
2024/04/05 10:12:12;;;;;;;;;;;;;;;21.10;55.49;101294.25;5028626;28;20000;-92
2024/04/05 10:14:37;;;;;;;;;;;;;;;21.15;55.83;101285.16;5028496;28;19913;-91
2024/04/05 10:17:09;;;;;;;;;;;;;;;21.15;55.35;101293.31;5032704;28;19921;-88
2024/04/05 10:19:38;;;;;;;;;;;;;;;21.18;55.90;101289.97;5030472;28;19917;-93
2024/04/05 10:22:10;;;;;;;;;;;;;;;21.23;55.65;101272.72;5024921;28;21098;-89
2024/04/05 10:24:38;;;;;;;;;;;;;;;21.24;55.00;101261.56;5028328;28;19932;-90
2024/04/05 10:27:04;;;;;;;;;;;;;;;21.21;54.89;101275.75;5021332;28;19971;-92
2024/04/05 10:29:30;;;;;;;;;;;;;;;21.24;55.25;101268.88;5021492;28;19921;-92
2024/04/05 10:32:03;;;;;;;;;;;;;;;21.29;55.00;101277.78;5034224;28;20550;-91
2024/04/05 10:34:28;;;;;;;;;;;;;;;21.28;54.65;101284.34;5024808;28;19928;-88
2024/04/05 10:36:55;;;;;;;;;;;;;;;21.29;54.71;101282.44;5029640;28;19925;-86
2024/04/05 10:39:20;;;;;;;;;;;;;;;21.30;54.64;101270.41;5025271;28;19924;-91
2024/04/05 10:41:46;;;;;;;;;;;;;;;21.32;55.09;101279.06;5030730;28;19920;-89
2024/04/05 10:44:11;;;;;;;;;;;;;;;21.35;54.67;101279.25;5023951;28;19932;-91
2024/04/05 10:46:39;;;;;;;;;;;;;;;21.38;54.82;101280.59;5030858;28;20004;-92
2024/04/05 10:49:04;;;;;;;;;;;;;;;21.41;54.73;101285.44;5028288;28;19928;-88
2024/04/05 10:51:30;;;;;;;;;;;;;;;21.45;54.77;101286.41;5022647;28;19928;-89
2024/04/05 10:53:55;;;;;;;;;;;;;;;21.45;54.45;101291.06;5027241;28;20491;-91
2024/04/05 10:56:20;;;;;;;;;;;;;;;21.42;54.33;101298.75;5022948;28;20448;-89
2024/04/05 10:58:46;;;;;;;;;;;;;;;21.42;54.00;101317.03;5027539;28;19921;-89
2024/04/05 11:01:17;;;;;;;;;;;;;;;21.34;53.00;101296.72;5029705;28;20304;-92
2024/04/05 11:03:42;;;;;;;;;;;;;;;21.34;53.90;101276.84;5026234;28;19952;-88
2024/04/05 11:06:08;;;;;;;;;;;;;;;21.47;53.75;101275.19;5029054;28;20381;-89
2024/04/05 11:08:34;;;;;;;;;;;;;;;21.60;53.42;101277.09;5025758;28;19921;-90
2024/04/05 11:10:59;;;;;;;;;;;;;;;21.65;52.62;101279.69;5028446;28;19924;-91
2024/04/05 11:13:28;;;;;;;;;;;;;;;21.72;52.47;101282.75;5026323;28;19928;-89
2024/04/05 11:16:02;;;;;;;;;;;;;;;21.75;52.43;101279.44;5044563;28;20423;-90
2024/04/05 11:18:27;;;;;;;;;;;;;;;21.79;52.44;101274.16;5029392;28;20352;-88
2024/04/05 11:20:55;;;;;;;;;;;;;;;21.78;52.64;101267.09;5023465;28;19960;-87
2024/04/05 11:23:21;;;;;;;;;;;;;;;21.75;52.04;101268.53;5026308;28;19921;-92
2024/04/05 11:25:56;;;;;;;;;;;;;;;21.81;52.61;101259.09;5024071;28;20421;-91
2024/04/05 11:28:24;;;;;;;;;;;;;;;21.97;52.38;101254.06;5024366;28;20091;-88
2024/04/05 11:30:53;;;;;;;;;;;;;;;22.03;52.22;101253.59;5022228;28;19924;-91
2024/04/05 11:33:18;;;;;;;;;;;;;;;22.07;51.86;101253.81;5021233;28;20016;-89
2024/04/05 11:35:44;;;;;;;;;;;;;;;22.11;52.14;101227.53;5025752;28;20592;-90
2024/04/05 11:38:09;;;;;;;;;;;;;;;22.19;51.58;101228.69;5025705;28;19928;-90
2024/04/05 11:40:35;;;;;;;;;;;;;;;22.18;51.61;101227.88;5022705;28;19918;-89
2024/04/05 11:43:01;;;;;;;;;;;;;;;22.16;50.96;101232.03;5021609;28;19927;-88
2024/04/05 11:45:26;;;;;;;;;;;;;;;22.10;50.27;101225.94;5024849;28;19917;-88
2024/04/05 11:47:51;;;;;;;;;;;;;;;22.10;50.60;101215.00;5026945;28;19920;-91
2024/04/05 11:50:17;;;;;;;;;;;;;;;22.16;50.61;101213.75;5028440;28;20464;-87
2024/04/05 11:52:42;;;;;;;;;;;;;;;22.19;50.13;101207.66;5023821;28;20780;-84
2024/04/05 11:55:08;;;;;;;;;;;;;;;22.23;50.75;101196.91;5025015;28;19921;-91
2024/04/05 11:57:33;;;;;;;;;;;;;;;22.26;49.79;101188.06;5025481;28;19941;-90
2024/04/05 11:59:59;;;;;;;;;;;;;;;22.26;50.52;101185.34;5025488;28;19921;-87
2024/04/05 12:02:25;;;;;;;;;;;;;;;22.20;50.48;101178.44;5026305;28;20490;-86
2024/04/05 12:04:50;;;;;;;;;;;;;;;22.22;50.48;101171.53;5024237;28;19991;-89
2024/04/05 12:07:15;;;;;;;;;;;;;;;22.09;50.79;101158.03;5024826;28;19921;-86
2024/04/05 12:09:41;;;;;;;;;;;;;;;22.09;50.99;101160.75;5027400;28;20029;-89
2024/04/05 12:12:06;;;;;;;;;;;;;;;22.07;51.30;101149.31;5025928;28;19932;-89
2024/04/05 12:14:34;;;;;;;;;;;;;;;22.08;51.42;101140.81;5026163;28;19928;-90
2024/04/05 12:17:00;;;;;;;;;;;;;;;22.05;51.13;101136.00;5025732;28;19924;-92
2024/04/05 12:19:26;;;;;;;;;;;;;;;22.05;51.56;101146.09;5027591;28;19917;-91
2024/04/05 12:21:51;;;;;;;;;;;;;;;22.09;51.15;101152.56;5025408;28;19921;-87
2024/04/05 12:24:16;;;;;;;;;;;;;;;22.07;51.09;101146.59;5027096;28;19990;-89
2024/04/05 12:26:42;;;;;;;;;;;;;;;22.13;51.82;101150.81;5025639;28;19925;-89
2024/04/05 12:29:07;;;;;;;;;;;;;;;22.19;51.41;101144.06;5027412;28;19932;-89